createdAt,value
2022-10-23T00:01:44.002Z,85.75
2022-10-23T00:04:16.290Z,85.54
2022-10-23T00:06:44.434Z,85.33
2022-10-23T00:09:16.914Z,85.23
2022-10-23T00:11:47.882Z,85.58
2022-10-23T00:14:18.847Z,85.45
2022-10-23T00:16:46.349Z,85.29
2022-10-23T00:19:13.901Z,85.00
2022-10-23T00:21:41.875Z,85.07
2022-10-23T00:26:42.642Z,84.70
2022-10-23T00:29:11.689Z,84.57
2022-10-23T00:31:39.336Z,84.46
2022-10-23T00:34:08.526Z,84.42
2022-10-23T00:36:36.934Z,84.57
2022-10-23T00:39:05.774Z,84.32
2022-10-23T00:41:33.444Z,84.42
2022-10-23T00:44:10.481Z,84.68
2022-10-23T00:46:39.695Z,84.88
2022-10-23T00:49:09.503Z,84.38
2022-10-23T00:52:01.165Z,84.74
2022-10-23T00:54:36.539Z,84.98
2022-10-23T00:57:11.601Z,84.87
2022-10-23T00:59:39.847Z,85.06
2022-10-23T01:02:07.633Z,84.75
2022-10-23T01:04:36.120Z,84.95
2022-10-23T01:07:23.258Z,85.05
2022-10-23T01:10:23.427Z,84.69
2022-10-23T01:13:02.486Z,84.69
2022-10-23T01:16:16.824Z,84.76
2022-10-23T01:19:09.600Z,84.69
2022-10-23T01:25:04.714Z,84.62
2022-10-23T01:27:38.636Z,84.58
2022-10-23T01:30:12.347Z,84.42
2022-10-23T01:33:12.973Z,84.37
2022-10-23T01:35:56.397Z,84.39
2022-10-23T01:38:46.482Z,84.47
2022-10-23T01:41:30.542Z,84.33
2022-10-23T01:44:29.519Z,84.53
2022-10-23T01:46:58.772Z,84.59
2022-10-23T01:49:32.191Z,84.59
2022-10-23T01:52:06.339Z,84.62
2022-10-23T01:54:41.055Z,84.65
2022-10-23T01:57:16.197Z,84.82
2022-10-23T01:59:51.116Z,85.14
2022-10-23T02:02:22.722Z,85.02
2022-10-23T02:05:07.713Z,85.12
2022-10-23T02:07:36.450Z,85.20
2022-10-23T02:10:09.731Z,85.24
2022-10-23T02:12:49.843Z,85.20
2022-10-23T02:15:30.883Z,85.20
2022-10-23T02:18:24.290Z,85.20
2022-10-23T02:21:04.997Z,85.36
2022-10-23T02:23:52.532Z,85.47
2022-10-23T02:26:57.255Z,85.57
2022-10-23T02:29:39.087Z,85.86
2022-10-23T02:32:10.418Z,86.09
2022-10-23T02:34:38.460Z,86.13
2022-10-23T02:37:05.976Z,86.20
2022-10-23T02:39:33.538Z,86.41
2022-10-23T02:42:22.591Z,86.24
2022-10-23T02:45:10.013Z,86.23
2022-10-23T02:47:49.254Z,86.28
2022-10-23T02:50:35.583Z,86.33
2022-10-23T02:53:44.543Z,86.69
2022-10-23T02:56:32.621Z,86.57
2022-10-23T02:59:21.314Z,86.46
2022-10-23T03:02:04.172Z,86.54
2022-10-23T03:04:33.319Z,87.19
2022-10-23T03:07:01.121Z,87.60
2022-10-23T03:09:29.696Z,87.99
2022-10-23T03:11:57.084Z,87.90
2022-10-23T03:14:24.571Z,87.80
2022-10-23T03:16:52.065Z,87.82
2022-10-23T03:19:19.538Z,87.72
2022-10-23T03:21:47.041Z,87.85
2022-10-23T03:24:14.630Z,87.94
2022-10-23T03:26:44.263Z,87.69
2022-10-23T03:29:11.818Z,87.56
2022-10-23T03:31:45.439Z,87.38
2022-10-23T03:34:15.066Z,87.31
2022-10-23T03:36:43.351Z,87.37
2022-10-23T03:39:11.621Z,87.33
2022-10-23T03:41:39.177Z,87.27
2022-10-23T03:44:06.655Z,87.08
2022-10-23T03:46:34.231Z,86.84
2022-10-23T03:49:01.903Z,86.82
2022-10-23T03:51:29.931Z,86.89
2022-10-23T03:53:58.699Z,86.86
2022-10-23T03:56:26.335Z,87.01
2022-10-23T03:58:53.852Z,87.12
2022-10-23T04:01:25.267Z,87.16
2022-10-23T04:03:52.973Z,87.12
2022-10-23T04:06:23.332Z,87.06
2022-10-23T04:08:55.564Z,87.15
2022-10-23T04:11:23.144Z,87.10
2022-10-23T04:13:50.662Z,86.98
2022-10-23T04:16:18.443Z,87.15
2022-10-23T04:18:46.404Z,87.26
2022-10-23T04:21:14.079Z,87.55
2022-10-23T04:23:42.172Z,87.88
2022-10-23T04:26:15.101Z,87.97
2022-10-23T04:28:43.010Z,88.10
2022-10-23T04:31:11.069Z,88.10
2022-10-23T04:33:41.683Z,88.16
2022-10-23T04:36:09.955Z,88.18
2022-10-23T04:38:37.451Z,88.30
2022-10-23T04:41:07.219Z,88.54
2022-10-23T04:43:35.078Z,88.63
2022-10-23T04:46:04.376Z,88.77
2022-10-23T04:48:32.398Z,89.08
2022-10-23T04:51:18.336Z,89.41
2022-10-23T04:54:24.054Z,89.46
2022-10-23T04:57:09.947Z,89.47
2022-10-23T04:59:54.818Z,89.30
2022-10-23T05:02:23.487Z,89.26
2022-10-23T05:04:52.092Z,89.23
2022-10-23T05:07:46.013Z,89.02
2022-10-23T05:10:24.887Z,88.86
2022-10-23T05:13:03.509Z,88.62
2022-10-23T05:15:31.623Z,88.47
2022-10-23T05:18:43.472Z,88.18
2022-10-23T05:21:25.889Z,87.90
2022-10-23T05:23:54.892Z,87.68
2022-10-23T05:26:23.828Z,87.56
2022-10-23T05:28:53.496Z,87.46
2022-10-23T05:31:23.816Z,87.24
2022-10-23T05:33:55.287Z,86.90
2022-10-23T05:36:25.812Z,86.60
2022-10-23T05:38:58.522Z,85.81
2022-10-23T05:41:26.892Z,84.59
2022-10-23T05:43:58.423Z,80.71
2022-10-23T05:46:51.909Z,76.23
2022-10-23T05:49:57.854Z,68.57
2022-10-23T05:52:47.777Z,64.19
2022-10-23T05:55:32.294Z,64.03
2022-10-23T05:58:19.931Z,65.62
2022-10-23T06:01:11.768Z,68.39
2022-10-23T06:03:56.144Z,70.45
2022-10-23T06:06:31.323Z,71.75
2022-10-23T06:08:58.901Z,73.50
2022-10-23T06:11:26.518Z,73.16
2022-10-23T06:14:01.043Z,70.38
2022-10-23T06:16:28.769Z,67.60
2022-10-23T06:18:57.437Z,67.15
2022-10-23T06:21:25.100Z,67.50
2022-10-23T06:23:55.052Z,69.25
2022-10-23T06:26:23.031Z,69.86
2022-10-23T06:29:06.399Z,68.90
2022-10-23T06:31:34.355Z,64.24
2022-10-23T06:34:03.240Z,63.85
2022-10-23T06:36:32.030Z,63.02
2022-10-23T06:39:08.337Z,60.92
2022-10-23T06:41:55.752Z,57.70
2022-10-23T06:45:04.880Z,53.38
2022-10-23T06:47:53.413Z,50.97
2022-10-23T06:50:55.800Z,46.78
2022-10-23T06:53:35.913Z,43.49
2022-10-23T06:56:12.700Z,41.81
2022-10-23T06:58:40.759Z,43.63
2022-10-23T07:01:16.639Z,40.11
2022-10-23T07:03:45.752Z,39.17
2022-10-23T07:06:15.625Z,39.23
2022-10-23T07:08:43.155Z,38.19
2022-10-23T07:11:33.577Z,40.13
2022-10-23T07:14:02.535Z,40.59
2022-10-23T07:16:30.900Z,38.76
2022-10-23T07:19:01.266Z,38.59
2022-10-23T07:21:32.703Z,40.71
2022-10-23T07:24:18.499Z,41.51
2022-10-23T07:26:46.248Z,39.75
2022-10-23T07:29:15.051Z,38.85
2022-10-23T07:31:43.584Z,37.78
2022-10-23T07:34:29.377Z,40.24
2022-10-23T07:37:30.513Z,42.90
2022-10-23T07:40:00.886Z,45.44
2022-10-23T07:42:28.459Z,44.25
2022-10-23T07:44:55.944Z,42.59
2022-10-23T07:47:23.795Z,41.33
2022-10-23T07:49:52.899Z,41.20
2022-10-23T07:52:21.182Z,42.53
2022-10-23T07:55:13.031Z,40.18
2022-10-23T07:57:47.611Z,38.65
2022-10-23T08:00:41.317Z,35.71
2022-10-23T08:03:34.117Z,33.00
2022-10-23T08:06:03.086Z,33.73
2022-10-23T08:08:31.626Z,33.54
2022-10-23T08:11:03.200Z,31.40
2022-10-23T08:13:38.754Z,32.03
2022-10-23T08:16:07.911Z,33.12
2022-10-23T08:18:53.862Z,33.73
2022-10-23T08:21:22.046Z,33.70
2022-10-23T08:23:55.290Z,35.31
2022-10-23T08:26:24.622Z,36.56
2022-10-23T08:28:53.359Z,36.94
2022-10-23T08:31:22.391Z,36.66
2022-10-23T08:34:10.445Z,34.99
2022-10-23T08:36:39.322Z,31.76
2022-10-23T08:39:07.758Z,31.09
2022-10-23T08:41:43.855Z,32.23
2022-10-23T08:44:22.332Z,31.16
2022-10-23T08:46:59.311Z,31.92
2022-10-23T08:49:50.854Z,30.16
2022-10-23T08:52:29.999Z,28.29
2022-10-23T08:55:23.375Z,27.39
2022-10-23T08:58:17.035Z,27.65
2022-10-23T09:00:47.402Z,26.97
2022-10-23T09:03:15.374Z,28.12
2022-10-23T09:05:57.910Z,27.81
2022-10-23T09:08:52.078Z,29.33
2022-10-23T09:11:27.012Z,30.75
2022-10-23T09:14:28.703Z,30.93
2022-10-23T09:17:26.982Z,32.75
2022-10-23T09:20:00.569Z,33.27
2022-10-23T09:22:29.171Z,32.51
2022-10-23T09:24:56.750Z,29.49
2022-10-23T09:27:24.538Z,29.98
2022-10-23T09:29:55.578Z,30.68
2022-10-23T09:32:38.053Z,31.11
2022-10-23T09:35:06.962Z,33.04
2022-10-23T09:37:39.781Z,32.04
2022-10-23T09:40:38.965Z,30.73
2022-10-23T09:43:19.064Z,28.44
2022-10-23T09:45:58.802Z,30.31
2022-10-23T09:48:26.876Z,29.13
2022-10-23T09:50:58.994Z,28.53
2022-10-23T09:53:37.852Z,30.68
2022-10-23T09:56:24.820Z,33.37
2022-10-23T09:59:05.511Z,33.30
2022-10-23T10:01:45.358Z,33.54
2022-10-23T10:04:41.679Z,33.13
2022-10-23T10:07:38.403Z,35.16
2022-10-23T10:10:15.568Z,34.13
2022-10-23T10:13:01.536Z,34.15
2022-10-23T10:15:54.908Z,33.45
2022-10-23T10:18:32.882Z,30.81
2022-10-23T10:21:25.235Z,28.43
2022-10-23T10:24:20.635Z,28.91
2022-10-23T10:27:29.156Z,28.56
2022-10-23T10:30:13.524Z,28.74
2022-10-23T10:33:22.028Z,28.65
2022-10-23T10:39:11.888Z,31.15
2022-10-23T10:42:07.129Z,30.66
2022-10-23T10:45:11.919Z,30.63
2022-10-23T10:48:30.531Z,34.37
2022-10-23T10:51:47.249Z,34.51
2022-10-23T10:54:42.117Z,34.77
2022-10-23T10:57:34.648Z,34.45
2022-10-23T11:00:26.922Z,34.64
2022-10-23T11:03:22.410Z,36.30
2022-10-23T11:05:51.631Z,38.97
2022-10-23T11:08:44.593Z,40.62
2022-10-23T11:11:36.431Z,40.85
2022-10-23T11:14:04.223Z,41.46
2022-10-23T11:16:37.539Z,43.08
2022-10-23T11:19:19.679Z,44.58
2022-10-23T11:22:37.907Z,45.83
2022-10-23T11:25:44.345Z,47.08
2022-10-23T11:28:45.317Z,47.30
2022-10-23T11:31:52.492Z,46.09
2022-10-23T11:35:02.494Z,44.38
2022-10-23T11:37:30.300Z,44.41
2022-10-23T11:40:06.795Z,45.54
2022-10-23T11:42:54.618Z,46.38
2022-10-23T11:45:32.686Z,46.35
2022-10-23T11:48:23.906Z,43.71
2022-10-23T11:50:59.152Z,40.64
2022-10-23T11:53:31.858Z,40.84
2022-10-23T11:56:25.710Z,43.47
2022-10-23T11:58:57.551Z,43.02
2022-10-23T12:01:41.397Z,44.02
2022-10-23T12:04:14.897Z,42.60
2022-10-23T12:06:53.978Z,44.56
2022-10-23T12:09:44.362Z,46.34
2022-10-23T12:12:11.713Z,44.00
2022-10-23T12:14:46.743Z,43.49
2022-10-23T12:17:23.214Z,44.51
2022-10-23T12:20:13.152Z,46.14
2022-10-23T12:23:14.278Z,46.46
2022-10-23T12:26:11.147Z,47.06
2022-10-23T12:28:57.062Z,47.92
2022-10-23T12:32:14.001Z,47.86
2022-10-23T12:34:56.499Z,47.64
2022-10-23T12:38:15.047Z,47.83
2022-10-23T12:40:51.513Z,48.88
2022-10-23T12:43:36.260Z,49.02
2022-10-23T12:46:31.153Z,49.16
2022-10-23T12:49:01.156Z,49.09
2022-10-23T12:51:35.227Z,49.56
2022-10-23T12:54:03.891Z,50.07
2022-10-23T12:56:39.007Z,50.20
2022-10-23T12:59:15.640Z,51.58
2022-10-23T13:01:43.560Z,51.50
2022-10-23T13:06:53.415Z,49.78
2022-10-23T13:09:39.296Z,50.87
2022-10-23T13:12:35.035Z,50.78
2022-10-23T13:15:17.036Z,50.53
2022-10-23T13:17:53.186Z,50.71
2022-10-23T13:20:26.426Z,50.64
2022-10-23T13:23:18.864Z,50.18
2022-10-23T13:26:45.972Z,50.64
2022-10-23T13:29:31.149Z,51.85
2022-10-23T13:32:12.902Z,50.19
2022-10-23T13:35:03.692Z,51.30
2022-10-23T13:37:37.983Z,50.74
2022-10-23T13:40:23.269Z,51.35
2022-10-23T13:42:54.090Z,50.44
2022-10-23T13:45:25.856Z,50.02
2022-10-23T13:47:53.843Z,51.07
2022-10-23T13:50:21.307Z,52.16
2022-10-23T13:52:48.944Z,51.88
2022-10-23T13:55:24.466Z,52.85
2022-10-23T13:57:52.075Z,53.64
2022-10-23T14:00:19.957Z,53.83
2022-10-23T14:02:47.510Z,53.81
2022-10-23T14:05:14.987Z,53.86
2022-10-23T14:07:42.776Z,53.72
2022-10-23T14:10:10.528Z,53.87
2022-10-23T14:12:42.432Z,54.22
2022-10-23T14:15:11.600Z,54.81
2022-10-23T14:17:39.362Z,55.48
2022-10-23T14:20:07.325Z,55.59
2022-10-23T14:22:34.803Z,55.59
2022-10-23T14:25:02.323Z,55.61
2022-10-23T14:27:30.102Z,56.64
2022-10-23T14:29:59.289Z,56.26
2022-10-23T14:32:26.820Z,56.67
2022-10-23T14:34:54.683Z,57.02
2022-10-23T14:37:21.986Z,56.89
2022-10-23T14:39:50.316Z,56.95
2022-10-23T14:42:18.285Z,57.30
2022-10-23T14:44:45.626Z,57.85
2022-10-23T14:47:12.978Z,57.85
2022-10-23T14:49:41.180Z,58.34
2022-10-23T14:52:09.015Z,58.67
2022-10-23T14:54:36.567Z,58.43
2022-10-23T14:57:04.635Z,58.79
2022-10-23T14:59:32.109Z,58.94
2022-10-23T15:01:59.575Z,59.07
2022-10-23T15:04:27.071Z,59.44
2022-10-23T15:06:54.587Z,59.51
2022-10-23T15:09:22.087Z,59.87
2022-10-23T15:11:49.595Z,60.24
2022-10-23T15:14:17.198Z,59.84
2022-10-23T15:16:44.702Z,60.12
2022-10-23T15:19:18.327Z,60.80
2022-10-23T15:21:48.383Z,61.17
2022-10-23T15:24:21.075Z,61.89
2022-10-23T15:26:49.971Z,61.86
2022-10-23T15:29:18.618Z,62.45
2022-10-23T15:31:58.737Z,62.81
2022-10-23T15:34:29.602Z,63.43
2022-10-23T15:36:59.159Z,63.74
2022-10-23T15:39:33.865Z,64.07
2022-10-23T15:42:04.631Z,63.73
2022-10-23T15:44:33.934Z,64.04
2022-10-23T15:47:01.682Z,65.37
2022-10-23T15:49:30.011Z,65.49
2022-10-23T15:51:58.326Z,64.99
2022-10-23T15:54:28.182Z,65.32
2022-10-23T15:56:58.373Z,66.28
2022-10-23T15:59:26.878Z,66.06
2022-10-23T16:01:55.528Z,66.09
2022-10-23T16:04:23.527Z,66.29
2022-10-23T16:06:51.088Z,66.95
2022-10-23T16:09:18.526Z,67.05
2022-10-23T16:11:46.043Z,67.41
2022-10-23T16:14:16.733Z,67.10
2022-10-23T16:16:44.516Z,68.03
2022-10-23T16:19:12.926Z,67.88
2022-10-23T16:21:41.832Z,68.08
2022-10-23T16:24:10.852Z,68.67
2022-10-23T16:26:40.320Z,69.09
2022-10-23T16:29:09.698Z,69.97
2022-10-23T16:31:37.721Z,70.18
2022-10-23T16:34:06.062Z,70.54
2022-10-23T16:36:34.425Z,70.67
2022-10-23T16:39:24.753Z,71.92
2022-10-23T16:42:10.759Z,72.14
2022-10-23T16:44:56.808Z,72.76
2022-10-23T16:47:24.236Z,72.92
2022-10-23T16:49:51.692Z,73.32
2022-10-23T16:52:19.207Z,73.16
2022-10-23T16:54:46.737Z,73.68
2022-10-23T16:57:14.280Z,74.04
2022-10-23T16:59:41.874Z,74.11
2022-10-23T17:02:12.327Z,74.46
2022-10-23T17:04:40.435Z,75.04
2022-10-23T17:07:08.287Z,75.51
2022-10-23T17:09:35.972Z,75.27
2022-10-23T17:12:03.883Z,75.93
2022-10-23T17:14:31.964Z,76.19
2022-10-23T17:17:02.602Z,76.42
2022-10-23T17:19:47.044Z,76.53
2022-10-23T17:22:16.643Z,76.76
2022-10-23T17:24:47.474Z,77.01
2022-10-23T17:27:18.020Z,77.34
2022-10-23T17:29:45.527Z,77.40
2022-10-23T17:32:13.086Z,77.02
2022-10-23T17:34:40.645Z,76.93
2022-10-23T17:37:08.951Z,76.95
2022-10-23T17:39:36.427Z,76.97
2022-10-23T17:42:04.046Z,76.78
2022-10-23T17:44:31.671Z,76.57
2022-10-23T17:46:59.601Z,76.57
2022-10-23T17:49:27.118Z,76.49
2022-10-23T17:51:57.371Z,76.50
2022-10-23T17:54:27.430Z,76.36
2022-10-23T17:56:55.207Z,76.51
2022-10-23T17:59:23.302Z,76.76
2022-10-23T18:01:51.030Z,76.89
2022-10-23T18:04:21.149Z,77.20
2022-10-23T18:06:53.593Z,77.01
2022-10-23T18:09:22.828Z,77.75
2022-10-23T18:11:50.780Z,79.06
2022-10-23T18:14:20.873Z,79.60
2022-10-23T18:16:49.220Z,79.72
2022-10-23T18:19:18.562Z,79.22
2022-10-23T18:21:47.692Z,79.12
2022-10-23T18:24:16.138Z,79.11
2022-10-23T18:26:44.810Z,78.95
2022-10-23T18:29:13.570Z,79.18
2022-10-23T18:31:42.416Z,79.46
2022-10-23T18:34:27.983Z,79.68
2022-10-23T18:36:55.782Z,79.86
2022-10-23T18:39:25.763Z,79.75
2022-10-23T18:41:57.419Z,79.79
2022-10-23T18:44:28.885Z,79.80
2022-10-23T18:46:59.241Z,79.78
2022-10-23T18:49:27.748Z,79.79
2022-10-23T18:51:55.668Z,80.00
2022-10-23T18:54:23.245Z,80.45
2022-10-23T18:56:50.848Z,80.61
2022-10-23T18:59:21.075Z,81.00
2022-10-23T19:01:50.100Z,81.37
2022-10-23T19:04:18.701Z,81.54
2022-10-23T19:06:48.242Z,81.70
2022-10-23T19:09:16.467Z,81.81
2022-10-23T19:11:45.267Z,81.81
2022-10-23T19:14:12.968Z,81.78
2022-10-23T19:16:55.959Z,82.02
2022-10-23T19:19:30.547Z,82.21
2022-10-23T19:21:58.515Z,82.14
2022-10-23T19:24:36.010Z,82.19
2022-10-23T19:27:04.548Z,82.23
2022-10-23T19:29:32.534Z,82.37
2022-10-23T19:32:00.536Z,82.20
2022-10-23T19:34:28.095Z,82.23
2022-10-23T19:36:55.647Z,82.55
2022-10-23T19:39:23.462Z,82.66
2022-10-23T19:41:51.642Z,82.85
2022-10-23T19:44:20.592Z,83.01
2022-10-23T19:46:49.055Z,83.23
2022-10-23T19:49:18.150Z,83.72
2022-10-23T19:51:50.930Z,83.56
2022-10-23T19:54:21.194Z,83.76
2022-10-23T19:56:49.553Z,83.73
2022-10-23T19:59:18.042Z,83.89
2022-10-23T20:01:48.049Z,83.89
2022-10-23T20:04:18.741Z,84.17
2022-10-23T20:06:47.016Z,84.12
2022-10-23T20:09:14.384Z,84.07
2022-10-23T20:11:43.503Z,84.02
2022-10-23T20:14:12.806Z,83.91
2022-10-23T20:16:40.300Z,83.91
2022-10-23T20:19:14.906Z,83.93
2022-10-23T20:21:46.316Z,83.98
2022-10-23T20:24:17.650Z,83.86
2022-10-23T20:26:52.550Z,83.78
2022-10-23T20:29:21.793Z,83.33
2022-10-23T20:31:49.541Z,83.08
2022-10-23T20:34:17.568Z,83.04
2022-10-23T20:36:49.467Z,82.66
2022-10-23T20:39:26.923Z,82.58
2022-10-23T20:42:07.612Z,82.51
2022-10-23T20:44:35.130Z,82.59
2022-10-23T20:47:03.179Z,82.49
2022-10-23T20:49:44.404Z,82.71
2022-10-23T20:52:15.996Z,82.84
2022-10-23T20:54:43.890Z,83.01
2022-10-23T20:57:11.829Z,83.23
2022-10-23T20:59:39.387Z,83.55
2022-10-23T21:02:07.469Z,83.56
2022-10-23T21:04:35.065Z,84.12
2022-10-23T21:07:10.118Z,84.72
2022-10-23T21:09:39.925Z,84.31
2022-10-23T21:12:08.994Z,84.65
2022-10-23T21:14:36.828Z,85.00
2022-10-23T21:17:05.282Z,85.03
2022-10-23T21:19:32.804Z,84.86
2022-10-23T21:22:00.268Z,84.91
2022-10-23T21:24:27.777Z,85.22
2022-10-23T21:26:55.235Z,85.22
2022-10-23T21:29:22.762Z,85.63
2022-10-23T21:32:01.041Z,85.68
2022-10-23T21:34:29.359Z,85.72
2022-10-23T21:37:13.877Z,85.72
2022-10-23T21:39:43.653Z,86.08
2022-10-23T21:42:13.848Z,86.08
2022-10-23T21:44:41.705Z,86.44
2022-10-23T21:47:09.443Z,86.36
2022-10-23T21:49:36.978Z,86.23
2022-10-23T21:52:04.994Z,86.43
2022-10-23T21:54:33.124Z,86.64
2022-10-23T21:57:00.529Z,86.30
2022-10-23T21:59:30.253Z,85.85
2022-10-23T22:01:59.220Z,85.83
2022-10-23T22:04:26.942Z,85.67
2022-10-23T22:06:54.414Z,85.63
2022-10-23T22:09:22.431Z,85.69
2022-10-23T22:11:54.234Z,85.89
2022-10-23T22:14:23.042Z,85.98
2022-10-23T22:16:50.520Z,86.28
2022-10-23T22:19:21.439Z,86.30
2022-10-23T22:21:51.748Z,86.13
2022-10-23T22:24:19.626Z,86.19
2022-10-23T22:26:52.266Z,86.12
2022-10-23T22:29:23.890Z,86.06
2022-10-23T22:31:52.031Z,85.88
2022-10-23T22:34:33.970Z,85.39
2022-10-23T22:37:12.504Z,85.03
2022-10-23T22:40:01.102Z,84.67
2022-10-23T22:42:31.780Z,84.13
2022-10-23T22:44:59.226Z,83.83
2022-10-23T22:47:29.370Z,83.53
2022-10-23T22:49:56.897Z,83.43
2022-10-23T22:52:24.379Z,83.17
2022-10-23T22:54:51.805Z,82.91
2022-10-23T22:57:19.341Z,82.77
2022-10-23T22:59:46.859Z,82.79
2022-10-23T23:02:14.488Z,82.73
2022-10-23T23:04:41.946Z,83.07
2022-10-23T23:07:12.852Z,83.31
2022-10-23T23:09:43.310Z,83.50
2022-10-23T23:12:13.616Z,83.67
2022-10-23T23:14:41.673Z,83.83
2022-10-23T23:17:10.185Z,84.30
2022-10-23T23:19:38.272Z,84.62
2022-10-23T23:22:06.092Z,84.91
2022-10-23T23:24:33.895Z,85.35
2022-10-23T23:27:01.427Z,85.44
2022-10-23T23:29:29.609Z,85.54
2022-10-23T23:31:57.172Z,85.52
2022-10-23T23:34:24.652Z,85.92
2022-10-23T23:36:52.188Z,86.00
2022-10-23T23:39:19.707Z,85.75
2022-10-23T23:41:47.124Z,85.64
2022-10-23T23:44:14.754Z,85.58
2022-10-23T23:46:42.246Z,85.52
2022-10-23T23:49:09.698Z,85.68
2022-10-23T23:51:37.271Z,85.79
2022-10-23T23:54:05.170Z,85.90
2022-10-23T23:56:32.709Z,85.99
2022-10-23T23:59:00.421Z,86.09
